Time;durP1;ratioP1;P1;durP2;ratioP2;P2;SDS_P1;SDS_P2;PMS_P1;PMS_P2;Temp;Humidity;BMP_temperature;BMP_pressure;BME280_temperature;BME280_humidity;BME280_pressure;Samples;Min_cycle;Max_cycle;Signal;HPM_P1;HPM_P2
2023/04/05 00:02:04;;;;;;;;;21.00;15.00;;;;;;;;5023247;28;8800;-80
2023/04/05 00:04:33;;;;;;;;;19.50;18.00;;;;;;;;5004741;28;8758;-80
2023/04/05 00:06:58;;;;;;;;;27.50;19.25;;;;;;;;5005641;28;11419;-80
2023/04/05 00:09:23;;;;;;;;;22.50;14.25;;;;;;;;5023115;28;11507;-80
2023/04/05 00:11:49;;;;;;;;;29.00;19.75;;;;;;;;5023185;28;8792;-81
2023/04/05 00:14:14;;;;;;;;;22.75;20.50;;;;;;;;5024621;28;8807;-80
2023/04/05 00:16:39;;;;;;;;;21.75;18.75;;;;;;;;5023069;28;8840;-80
2023/04/05 00:19:05;;;;;;;;;26.25;19.00;;;;;;;;5005537;28;10025;-80
2023/04/05 00:21:31;;;;;;;;;25.00;22.00;;;;;;;;5023336;28;8786;-80
2023/04/05 00:23:58;;;;;;;;;27.25;20.00;;;;;;;;5023329;28;8736;-80
2023/04/05 00:26:23;;;;;;;;;33.00;27.25;;;;;;;;5005015;28;11419;-80
2023/04/05 00:28:49;;;;;;;;;31.50;22.50;;;;;;;;5022381;28;11541;-80
2023/04/05 00:31:14;;;;;;;;;28.50;22.75;;;;;;;;5034298;28;8819;-80
2023/04/05 00:33:39;;;;;;;;;30.75;25.00;;;;;;;;5042710;28;8771;-80
2023/04/05 00:36:15;;;;;;;;;31.25;24.50;;;;;;;;5043076;28;8842;-80
2023/04/05 00:38:41;;;;;;;;;26.00;21.00;;;;;;;;5042835;28;8751;-81
2023/04/05 00:41:06;;;;;;;;;26.50;22.00;;;;;;;;5024473;28;11474;-80
2023/04/05 00:43:31;;;;;;;;;28.25;20.75;;;;;;;;5042540;28;8898;-80
2023/04/05 00:45:56;;;;;;;;;19.75;18.75;;;;;;;;5024777;28;8893;-80
2023/04/05 00:48:22;;;;;;;;;33.00;23.25;;;;;;;;5042831;28;8893;-81
2023/04/05 00:50:48;;;;;;;;;35.00;22.75;;;;;;;;5024674;28;8881;-80
2023/04/05 00:53:14;;;;;;;;;30.25;22.50;;;;;;;;5042440;28;8803;-80
2023/04/05 00:55:40;;;;;;;;;33.50;24.25;;;;;;;;5024169;28;11474;-81
2023/04/05 00:58:08;;;;;;;;;25.75;19.75;;;;;;;;5024728;28;10062;-80
2023/04/05 01:00:35;;;;;;;;;30.25;21.00;;;;;;;;5023548;28;11405;-80
2023/04/05 01:03:02;;;;;;;;;29.50;28.25;;;;;;;;5024756;28;11413;-80
2023/04/05 01:05:33;;;;;;;;;30.00;21.75;;;;;;;;5042288;28;11453;-80
2023/04/05 01:08:07;;;;;;;;;18.00;15.25;;;;;;;;5042217;28;12310;-80
2023/04/05 01:10:36;;;;;;;;;27.25;23.50;;;;;;;;5036363;28;11464;-80
2023/04/05 01:13:02;;;;;;;;;32.25;26.50;;;;;;;;5022609;28;11533;-80
2023/04/05 01:15:27;;;;;;;;;27.75;23.50;;;;;;;;5022206;28;11538;-80
2023/04/05 01:17:53;;;;;;;;;33.00;25.00;;;;;;;;5007310;28;9862;-80
2023/04/05 01:20:19;;;;;;;;;24.50;18.00;;;;;;;;5045693;28;8775;-81
2023/04/05 01:22:50;;;;;;;;;22.25;21.50;;;;;;;;5045427;28;8798;-80
2023/04/05 01:25:31;;;;;;;;;27.75;22.00;;;;;;;;5045669;28;11421;-80
2023/04/05 01:27:56;;;;;;;;;23.00;19.50;;;;;;;;5027773;28;11467;-80
2023/04/05 01:30:34;;;;;;;;;26.50;22.00;;;;;;;;5026935;28;11492;-81
2023/04/05 01:33:02;;;;;;;;;18.50;13.00;;;;;;;;5045545;28;8759;-80
2023/04/05 01:35:50;;;;;;;;;31.25;21.50;;;;;;;;5045511;28;11442;-80
2023/04/05 01:38:17;;;;;;;;;25.00;20.00;;;;;;;;5027353;28;11554;-80
2023/04/05 01:40:43;;;;;;;;;28.25;22.25;;;;;;;;5027479;28;11473;-80
2023/04/05 01:43:12;;;;;;;;;24.75;21.75;;;;;;;;5027601;28;11570;-80
2023/04/05 01:45:38;;;;;;;;;26.00;19.00;;;;;;;;5027151;28;8902;-80
2023/04/05 01:48:03;;;;;;;;;26.25;21.00;;;;;;;;5027376;28;11520;-80
2023/04/05 01:50:28;;;;;;;;;29.50;21.00;;;;;;;;5029889;28;8802;-80
2023/04/05 01:52:53;;;;;;;;;20.25;20.25;;;;;;;;5026546;28;9538;-81
2023/04/05 01:55:19;;;;;;;;;21.50;19.00;;;;;;;;5027582;28;9613;-81
2023/04/05 01:57:44;;;;;;;;;22.50;17.25;;;;;;;;5044965;28;8889;-80
2023/04/05 02:00:10;;;;;;;;;27.50;22.25;;;;;;;;5024300;28;9668;-80
2023/04/05 02:02:35;;;;;;;;;29.25;22.00;;;;;;;;5007364;28;9995;-80
2023/04/05 02:05:00;;;;;;;;;28.75;19.50;;;;;;;;5025445;28;8824;-80
2023/04/05 02:07:26;;;;;;;;;23.75;21.00;;;;;;;;5007427;28;9983;-81
2023/04/05 02:09:51;;;;;;;;;25.75;18.00;;;;;;;;5025202;28;9125;-80
2023/04/05 02:12:16;;;;;;;;;24.50;18.50;;;;;;;;5045044;28;8998;-80
2023/04/05 02:14:41;;;;;;;;;24.75;18.75;;;;;;;;5027026;28;9739;-80
2023/04/05 02:17:07;;;;;;;;;25.75;14.25;;;;;;;;5044659;28;8823;-80
2023/04/05 02:19:39;;;;;;;;;20.50;16.50;;;;;;;;5027030;28;8889;-80
2023/04/05 02:22:04;;;;;;;;;24.00;18.75;;;;;;;;5026762;28;8754;-80
2023/04/05 02:24:30;;;;;;;;;27.00;20.50;;;;;;;;5026931;28;11482;-80
2023/04/05 02:26:55;;;;;;;;;20.00;18.25;;;;;;;;5044464;28;9518;-80
2023/04/05 02:29:20;;;;;;;;;20.00;17.25;;;;;;;;5026004;28;9141;-80
2023/04/05 02:31:45;;;;;;;;;27.00;18.00;;;;;;;;5044282;28;8918;-80
2023/04/05 02:34:11;;;;;;;;;25.25;19.25;;;;;;;;5026955;28;8802;-80
2023/04/05 02:36:36;;;;;;;;;20.75;17.75;;;;;;;;5026460;28;9899;-80
2023/04/05 02:39:01;;;;;;;;;21.75;17.25;;;;;;;;5026599;28;8926;-80
2023/04/05 02:41:26;;;;;;;;;24.00;16.25;;;;;;;;5026887;28;8792;-80
2023/04/05 02:43:52;;;;;;;;;22.00;16.25;;;;;;;;5044441;28;8844;-79
2023/04/05 02:46:17;;;;;;;;;21.00;18.50;;;;;;;;5026463;28;10279;-80
2023/04/05 02:48:45;;;;;;;;;17.00;12.00;;;;;;;;5026919;28;8810;-80
2023/04/05 02:51:10;;;;;;;;;30.25;24.50;;;;;;;;5026025;28;8795;-80
2023/04/05 02:53:35;;;;;;;;;22.00;16.50;;;;;;;;5026408;28;11591;-80
2023/04/05 02:56:01;;;;;;;;;21.25;18.25;;;;;;;;5022897;28;10224;-80
2023/04/05 02:58:26;;;;;;;;;24.25;17.25;;;;;;;;5023206;28;8822;-80
2023/04/05 03:00:53;;;;;;;;;22.75;20.25;;;;;;;;5031214;28;8821;-80
2023/04/05 03:03:21;;;;;;;;;21.50;16.00;;;;;;;;5026595;28;8890;-80
2023/04/05 03:05:47;;;;;;;;;22.50;18.00;;;;;;;;5025789;28;11435;-80
2023/04/05 03:08:18;;;;;;;;;22.75;18.25;;;;;;;;5026127;28;11513;-80
2023/04/05 03:10:47;;;;;;;;;30.25;22.25;;;;;;;;5026395;28;8731;-80
2023/04/05 03:13:12;;;;;;;;;27.25;20.00;;;;;;;;5026070;28;11441;-80
2023/04/05 03:15:38;;;;;;;;;31.25;19.50;;;;;;;;5025730;28;12376;-80
2023/04/05 03:18:03;;;;;;;;;19.50;19.50;;;;;;;;5043873;28;8807;-80
2023/04/05 03:20:28;;;;;;;;;18.75;18.75;;;;;;;;5043570;28;8809;-80
2023/04/05 03:22:54;;;;;;;;;17.50;17.50;;;;;;;;5025352;28;8806;-80
2023/04/05 03:25:19;;;;;;;;;24.75;15.50;;;;;;;;5042845;28;8767;-81
2023/04/05 03:27:44;;;;;;;;;31.00;20.50;;;;;;;;5042434;28;8787;-80
2023/04/05 03:30:10;;;;;;;;;33.75;21.75;;;;;;;;5023841;28;8823;-80
2023/04/05 03:32:35;;;;;;;;;26.50;21.50;;;;;;;;5042270;28;9391;-80
2023/04/05 03:35:00;;;;;;;;;28.25;20.25;;;;;;;;5042869;28;8913;-80
2023/04/05 03:37:26;;;;;;;;;19.50;16.00;;;;;;;;5025533;28;8857;-80
2023/04/05 03:39:51;;;;;;;;;26.00;18.75;;;;;;;;5042560;28;8830;-80
2023/04/05 03:42:16;;;;;;;;;17.50;16.00;;;;;;;;5025794;28;8877;-80
2023/04/05 03:44:42;;;;;;;;;23.50;16.75;;;;;;;;5043694;28;8774;-80
2023/04/05 03:47:07;;;;;;;;;25.00;17.25;;;;;;;;5025051;28;9387;-80
2023/04/05 03:49:32;;;;;;;;;30.50;25.00;;;;;;;;5043266;28;8806;-80
2023/04/05 03:51:57;;;;;;;;;18.25;18.25;;;;;;;;5025762;28;8811;-80
2023/04/05 03:54:22;;;;;;;;;24.25;21.00;;;;;;;;5043102;28;8791;-80
2023/04/05 03:56:48;;;;;;;;;27.50;20.25;;;;;;;;5043655;28;8814;-80
2023/04/05 03:59:13;;;;;;;;;29.50;23.50;;;;;;;;5024180;28;8920;-81
2023/04/05 04:01:39;;;;;;;;;24.00;16.50;;;;;;;;5023123;28;8927;-80
2023/04/05 04:04:04;;;;;;;;;21.00;17.75;;;;;;;;5023267;28;8769;-80
2023/04/05 04:06:29;;;;;;;;;28.75;21.50;;;;;;;;5005333;28;8931;-80
2023/04/05 04:08:56;;;;;;;;;27.50;19.25;;;;;;;;5005690;28;8765;-80
2023/04/05 04:11:21;;;;;;;;;27.25;22.50;;;;;;;;5034292;28;8787;-80
2023/04/05 04:13:46;;;;;;;;;21.50;18.00;;;;;;;;5043173;28;11462;-80
2023/04/05 04:16:19;;;;;;;;;19.75;18.00;;;;;;;;5042670;28;8771;-80
2023/04/05 04:18:55;;;;;;;;;27.75;18.00;;;;;;;;5043353;28;8788;-80
2023/04/05 04:21:23;;;;;;;;;23.50;18.75;;;;;;;;5042997;28;11437;-80
2023/04/05 04:23:49;;;;;;;;;21.25;19.50;;;;;;;;5042967;28;11527;-80
2023/04/05 04:26:14;;;;;;;;;27.00;18.25;;;;;;;;5028150;28;11495;-80
2023/04/05 04:28:42;;;;;;;;;31.25;20.25;;;;;;;;5004923;28;8789;-79
2023/04/05 04:31:12;;;;;;;;;30.75;23.00;;;;;;;;5029581;28;8803;-80
2023/04/05 04:33:39;;;;;;;;;27.50;23.00;;;;;;;;5024846;28;12468;-80
2023/04/05 04:36:12;;;;;;;;;26.50;20.00;;;;;;;;5024685;28;11410;-80
2023/04/05 04:38:41;;;;;;;;;19.00;18.75;;;;;;;;5042489;28;11471;-80
2023/04/05 04:41:13;;;;;;;;;18.25;11.25;;;;;;;;5042655;28;11415;-80
2023/04/05 04:43:42;;;;;;;;;19.50;18.00;;;;;;;;5021150;28;11492;-80
2023/04/05 04:46:13;;;;;;;;;23.25;19.50;;;;;;;;5022536;28;11486;-80
2023/04/05 04:48:40;;;;;;;;;24.25;19.75;;;;;;;;5024554;28;11438;-80
2023/04/05 04:51:06;;;;;;;;;23.25;21.00;;;;;;;;5042262;28;11449;-80
2023/04/05 04:53:31;;;;;;;;;22.25;18.75;;;;;;;;5042321;28;12150;-80
2023/04/05 04:55:56;;;;;;;;;21.25;18.00;;;;;;;;5042539;28;8799;-80
2023/04/05 04:58:21;;;;;;;;;26.25;20.50;;;;;;;;5042275;28;8767;-80
2023/04/05 05:00:47;;;;;;;;;22.50;17.50;;;;;;;;5023377;28;8807;-80
2023/04/05 05:03:12;;;;;;;;;27.50;18.25;;;;;;;;5018085;28;9976;-80
2023/04/05 05:05:41;;;;;;;;;30.50;18.50;;;;;;;;5004535;28;8808;-80
2023/04/05 05:08:07;;;;;;;;;32.50;22.75;;;;;;;;5022546;28;8757;-80
2023/04/05 05:10:32;;;;;;;;;41.00;24.00;;;;;;;;5004392;28;11483;-84
2023/04/05 05:12:57;;;;;;;;;27.00;18.25;;;;;;;;5030359;28;9588;-87
2023/04/05 05:15:23;;;;;;;;;21.00;21.00;;;;;;;;5045392;28;8813;-86
2023/04/05 05:17:51;;;;;;;;;31.00;23.25;;;;;;;;5024014;28;8901;-86
2023/04/05 05:20:17;;;;;;;;;36.50;22.75;;;;;;;;5024285;28;9107;-85
2023/04/05 05:23:16;;;;;;;;;30.50;26.25;;;;;;;;5044469;28;11440;-85
2023/04/05 05:25:41;;;;;;;;;31.00;19.50;;;;;;;;5019292;28;8804;-85
2023/04/05 05:28:06;;;;;;;;;29.00;21.00;;;;;;;;5025177;28;11494;-85
2023/04/05 05:30:32;;;;;;;;;21.75;17.00;;;;;;;;5023395;28;8853;-85
2023/04/05 05:32:57;;;;;;;;;25.50;22.25;;;;;;;;5041687;28;8829;-84
2023/04/05 05:35:22;;;;;;;;;33.25;22.50;;;;;;;;5042256;28;8821;-84
2023/04/05 05:37:48;;;;;;;;;30.50;25.50;;;;;;;;5024112;28;8797;-84
2023/04/05 05:40:15;;;;;;;;;38.00;24.25;;;;;;;;5024588;28;8805;-84
2023/04/05 05:42:40;;;;;;;;;25.50;22.00;;;;;;;;5041912;28;8763;-84
2023/04/05 05:45:05;;;;;;;;;27.00;20.00;;;;;;;;5023312;28;11527;-86
2023/04/05 05:47:31;;;;;;;;;31.50;25.50;;;;;;;;5017580;28;8875;-80
2023/04/05 05:49:56;;;;;;;;;24.00;21.00;;;;;;;;5026337;28;8866;-80
2023/04/05 05:52:22;;;;;;;;;34.50;22.50;;;;;;;;5015784;28;9962;-81
2023/04/05 05:54:48;;;;;;;;;25.00;23.25;;;;;;;;5037362;28;10026;-80
2023/04/05 05:57:13;;;;;;;;;29.00;24.00;;;;;;;;5014289;28;8828;-82
2023/04/05 05:59:40;;;;;;;;;30.00;24.00;;;;;;;;5010123;28;8804;-81
2023/04/05 06:02:06;;;;;;;;;30.75;23.25;;;;;;;;5013457;28;10199;-81
2023/04/05 06:04:31;;;;;;;;;30.25;22.75;;;;;;;;5016988;28;11573;-80
2023/04/05 06:06:56;;;;;;;;;31.50;23.25;;;;;;;;5033278;28;8825;-79
2023/04/05 06:09:22;;;;;;;;;28.00;23.00;;;;;;;;5027961;28;8806;-79
2023/04/05 06:11:50;;;;;;;;;27.25;20.75;;;;;;;;5029674;28;8895;-79
2023/04/05 06:14:18;;;;;;;;;31.25;24.00;;;;;;;;5028260;28;8841;-80
2023/04/05 06:16:43;;;;;;;;;31.00;23.25;;;;;;;;5011461;28;11492;-80
2023/04/05 06:19:08;;;;;;;;;23.75;20.25;;;;;;;;5014568;28;11504;-80
2023/04/05 06:21:34;;;;;;;;;27.33;24.33;;;;;;;;5034062;28;8781;-80
2023/04/05 06:23:59;;;;;;;;;28.25;26.50;;;;;;;;5036672;28;8834;-81
2023/04/05 06:26:27;;;;;;;;;28.75;20.50;;;;;;;;5036136;28;8802;-81
2023/04/05 06:28:53;;;;;;;;;28.00;25.75;;;;;;;;5034569;28;8783;-80
2023/04/05 06:31:19;;;;;;;;;32.00;23.50;;;;;;;;5016026;28;11493;-80
2023/04/05 06:33:44;;;;;;;;;36.50;30.00;;;;;;;;5035159;28;8822;-81
2023/04/05 06:36:10;;;;;;;;;26.25;25.25;;;;;;;;5016928;28;11475;-81
2023/04/05 06:38:35;;;;;;;;;31.75;21.75;;;;;;;;5014688;28;8816;-80
2023/04/05 06:41:01;;;;;;;;;27.50;24.50;;;;;;;;5015817;28;9978;-83
2023/04/05 06:43:26;;;;;;;;;30.00;21.75;;;;;;;;5013839;28;8815;-81
2023/04/05 06:45:54;;;;;;;;;29.75;28.50;;;;;;;;5033288;28;8799;-81
2023/04/05 06:48:20;;;;;;;;;35.75;26.50;;;;;;;;5046508;28;8936;-82
2023/04/05 06:50:45;;;;;;;;;32.50;26.25;;;;;;;;5015990;28;11504;-82
2023/04/05 06:53:12;;;;;;;;;45.50;29.50;;;;;;;;5034727;28;8830;-79
2023/04/05 06:55:37;;;;;;;;;34.50;32.50;;;;;;;;5020976;28;8751;-82
2023/04/05 06:58:02;;;;;;;;;39.00;32.25;;;;;;;;5024567;28;11498;-82
2023/04/05 07:00:27;;;;;;;;;37.00;27.25;;;;;;;;5043123;28;8865;-82
2023/04/05 07:02:53;;;;;;;;;25.75;15.75;;;;;;;;5025720;28;8821;-82
2023/04/05 07:05:18;;;;;;;;;31.75;29.25;;;;;;;;5039193;28;8961;-83
2023/04/05 07:07:44;;;;;;;;;31.00;27.00;;;;;;;;5043729;28;8881;-82
2023/04/05 07:10:09;;;;;;;;;27.25;24.00;;;;;;;;5043729;28;8711;-80
2023/04/05 07:12:35;;;;;;;;;29.75;26.00;;;;;;;;5040057;28;11488;-79
2023/04/05 07:15:01;;;;;;;;;29.50;23.75;;;;;;;;5033209;28;8820;-79
2023/04/05 07:17:26;;;;;;;;;41.75;27.00;;;;;;;;5032494;28;8837;-78
2023/04/05 07:19:51;;;;;;;;;40.25;26.25;;;;;;;;5015422;28;10476;-79
2023/04/05 07:22:16;;;;;;;;;35.25;28.50;;;;;;;;5015573;28;8803;-78
2023/04/05 07:24:44;;;;;;;;;38.25;27.50;;;;;;;;5015861;28;8819;-81
2023/04/05 07:27:09;;;;;;;;;28.00;27.00;;;;;;;;5043550;28;8724;-81
2023/04/05 07:29:37;;;;;;;;;33.25;23.50;;;;;;;;5040932;28;11564;-80
2023/04/05 07:32:02;;;;;;;;;26.75;24.25;;;;;;;;5036095;28;8743;-81
2023/04/05 07:34:27;;;;;;;;;44.50;26.75;;;;;;;;5013914;28;11468;-81
2023/04/05 07:36:52;;;;;;;;;27.75;26.50;;;;;;;;5042083;28;8811;-81
2023/04/05 07:39:18;;;;;;;;;29.00;24.00;;;;;;;;5028206;28;8825;-81
2023/04/05 07:41:44;;;;;;;;;80.33;61.00;;;;;;;;5005378;28;8915;-81
2023/04/05 07:44:09;;;;;;;;;34.50;28.00;;;;;;;;5017263;28;8815;-81
2023/04/05 07:46:34;;;;;;;;;36.50;25.00;;;;;;;;5005256;28;8801;-81
2023/04/05 07:49:00;;;;;;;;;31.25;27.50;;;;;;;;5026153;28;8913;-81
2023/04/05 07:51:26;;;;;;;;;37.00;27.25;;;;;;;;5036711;28;8909;-81
2023/04/05 07:53:51;;;;;;;;;22.75;20.50;;;;;;;;5024620;28;8941;-80
2023/04/05 07:56:16;;;;;;;;;27.75;26.00;;;;;;;;5042682;28;11473;-80
2023/04/05 07:58:43;;;;;;;;;29.75;23.75;;;;;;;;5041880;28;8902;-80
2023/04/05 08:01:09;;;;;;;;;35.00;25.50;;;;;;;;5040007;28;8724;-80
2023/04/05 08:03:35;;;;;;;;;32.25;26.75;;;;;;;;5017405;28;11437;-80
2023/04/05 08:06:14;;;;;;;;;30.50;25.00;;;;;;;;5023196;28;11413;-81
2023/04/05 08:08:39;;;;;;;;;32.50;27.50;;;;;;;;5022581;28;11550;-80
2023/04/05 08:11:05;;;;;;;;;29.75;25.25;;;;;;;;5016283;28;11481;-81
2023/04/05 08:13:32;;;;;;;;;30.75;23.00;;;;;;;;5009578;28;9574;-81
2023/04/05 08:15:58;;;;;;;;;32.00;25.25;;;;;;;;5017579;28;8802;-80
2023/04/05 08:18:23;;;;;;;;;26.00;25.25;;;;;;;;5014531;28;11526;-81
2023/04/05 08:20:53;;;;;;;;;33.75;29.25;;;;;;;;5015704;28;8832;-80
2023/04/05 08:23:18;;;;;;;;;35.25;23.25;;;;;;;;5015439;28;8728;-80
2023/04/05 08:25:43;;;;;;;;;34.75;29.75;;;;;;;;5027199;28;11562;-81
2023/04/05 08:28:09;;;;;;;;;32.00;27.25;;;;;;;;5028204;28;8891;-81
2023/04/05 08:30:35;;;;;;;;;43.50;33.00;;;;;;;;5030484;28;8887;-80
2023/04/05 08:33:00;;;;;;;;;33.25;23.25;;;;;;;;5015589;28;8896;-81
2023/04/05 08:35:26;;;;;;;;;37.25;29.50;;;;;;;;5042831;28;11621;-81
2023/04/05 08:37:51;;;;;;;;;32.25;29.00;;;;;;;;5041534;28;8807;-81
2023/04/05 08:40:16;;;;;;;;;33.50;26.25;;;;;;;;5024528;28;8827;-81
2023/04/05 08:42:46;;;;;;;;;29.50;27.75;;;;;;;;5007720;28;8805;-81
2023/04/05 08:45:13;;;;;;;;;38.75;27.25;;;;;;;;5013115;28;8728;-81
2023/04/05 08:47:39;;;;;;;;;27.75;21.50;;;;;;;;5023860;28;11455;-81
2023/04/05 08:50:05;;;;;;;;;32.25;25.00;;;;;;;;5020508;28;11509;-81
2023/04/05 08:52:31;;;;;;;;;35.75;26.25;;;;;;;;5009429;28;11474;-81
2023/04/05 08:54:56;;;;;;;;;41.75;26.75;;;;;;;;5004401;28;8797;-81
2023/04/05 08:57:26;;;;;;;;;30.25;25.50;;;;;;;;5028364;28;9717;-81
2023/04/05 08:59:52;;;;;;;;;28.25;23.25;;;;;;;;5003567;28;8729;-81
2023/04/05 09:02:18;;;;;;;;;26.50;20.50;;;;;;;;5021413;28;11507;-81
2023/04/05 09:04:44;;;;;;;;;32.00;25.75;;;;;;;;5022612;28;8766;-81
2023/04/05 09:07:10;;;;;;;;;32.50;23.75;;;;;;;;5021648;28;12396;-81
2023/04/05 09:09:36;;;;;;;;;28.50;20.00;;;;;;;;5004674;28;8734;-81
2023/04/05 09:12:06;;;;;;;;;24.00;21.00;;;;;;;;5021572;28;11495;-81
2023/04/05 09:14:32;;;;;;;;;19.50;19.50;;;;;;;;5028091;28;8789;-81
2023/04/05 09:17:00;;;;;;;;;27.75;22.50;;;;;;;;5022492;28;11423;-81
2023/04/05 09:19:26;;;;;;;;;28.00;25.25;;;;;;;;5034489;28;11463;-81
2023/04/05 09:22:01;;;;;;;;;30.25;24.75;;;;;;;;5017581;28;11488;-82
2023/04/05 09:24:33;;;;;;;;;24.25;18.75;;;;;;;;5041797;28;8767;-81
2023/04/05 09:27:10;;;;;;;;;25.50;21.00;;;;;;;;5023821;28;11412;-81
2023/04/05 09:29:36;;;;;;;;;20.75;20.25;;;;;;;;5023142;28;11424;-81
2023/04/05 09:32:05;;;;;;;;;23.50;21.50;;;;;;;;5016550;28;11583;-83
2023/04/05 09:34:32;;;;;;;;;30.00;24.00;;;;;;;;5023695;28;8812;-81
2023/04/05 09:36:57;;;;;;;;;22.50;19.00;;;;;;;;5021814;28;11480;-81
2023/04/05 09:39:29;;;;;;;;;26.25;22.75;;;;;;;;5018190;28;11567;-81
2023/04/05 09:42:15;;;;;;;;;24.25;19.00;;;;;;;;5035334;28;8826;-81
2023/04/05 09:45:07;;;;;;;;;26.00;20.25;;;;;;;;5035056;28;11418;-81
2023/04/05 09:47:35;;;;;;;;;23.25;18.00;;;;;;;;5015267;28;11456;-81
2023/04/05 09:50:04;;;;;;;;;29.50;18.00;;;;;;;;5017827;28;11444;-81
2023/04/05 09:52:30;;;;;;;;;25.50;21.00;;;;;;;;5033910;28;11469;-81
2023/04/05 09:54:56;;;;;;;;;25.75;22.75;;;;;;;;5034120;28;11459;-81
2023/04/05 09:57:25;;;;;;;;;26.25;21.50;;;;;;;;5016285;28;9930;-81
2023/04/05 09:59:54;;;;;;;;;25.50;19.75;;;;;;;;5034653;28;8727;-81
2023/04/05 10:02:20;;;;;;;;;24.50;19.00;;;;;;;;5015080;28;11424;-82
2023/04/05 10:04:47;;;;;;;;;22.50;16.50;;;;;;;;5032125;28;11466;-79
2023/04/05 10:07:13;;;;;;;;;26.75;18.25;;;;;;;;5032235;28;11401;-79
2023/04/05 10:09:42;;;;;;;;;25.25;20.75;;;;;;;;5015677;28;11548;-81
2023/04/05 10:12:08;;;;;;;;;20.25;18.50;;;;;;;;5016285;28;11428;-82
2023/04/05 10:14:37;;;;;;;;;27.25;19.00;;;;;;;;5013795;28;11539;-80
2023/04/05 10:17:11;;;;;;;;;28.50;22.00;;;;;;;;5030916;28;11468;-80
2023/04/05 10:19:49;;;;;;;;;18.25;14.75;;;;;;;;5013064;28;11392;-80
2023/04/05 10:22:19;;;;;;;;;25.75;19.50;;;;;;;;5031701;28;11403;-80
2023/04/05 10:24:48;;;;;;;;;23.00;16.00;;;;;;;;5029016;28;11377;-80
2023/04/05 10:27:19;;;;;;;;;26.00;17.75;;;;;;;;5036496;28;11453;-82
2023/04/05 10:29:44;;;;;;;;;19.00;16.25;;;;;;;;5032377;28;11450;-82
2023/04/05 10:32:12;;;;;;;;;27.25;20.25;;;;;;;;5018432;28;12575;-81
2023/04/05 10:34:37;;;;;;;;;23.25;16.00;;;;;;;;5017163;28;8878;-83
2023/04/05 10:37:03;;;;;;;;;21.75;17.75;;;;;;;;5033896;28;11554;-83
2023/04/05 10:39:32;;;;;;;;;24.50;19.00;;;;;;;;5015955;28;8801;-83
2023/04/05 10:42:06;;;;;;;;;17.00;15.25;;;;;;;;5031953;28;8836;-82
2023/04/05 10:44:32;;;;;;;;;21.75;17.25;;;;;;;;5034127;28;11457;-83
2023/04/05 10:46:59;;;;;;;;;20.75;15.75;;;;;;;;5015846;28;11465;-82
2023/04/05 10:49:46;;;;;;;;;22.75;19.50;;;;;;;;5014167;28;11581;-83
2023/04/05 10:52:12;;;;;;;;;14.50;13.75;;;;;;;;5015689;28;11436;-82
2023/04/05 10:54:37;;;;;;;;;18.00;14.75;;;;;;;;5016022;28;11510;-82
2023/04/05 10:57:05;;;;;;;;;22.00;16.50;;;;;;;;5032794;28;9789;-83
2023/04/05 10:59:31;;;;;;;;;18.75;14.00;;;;;;;;5033626;28;8724;-82
2023/04/05 11:01:57;;;;;;;;;19.75;16.00;;;;;;;;5017354;28;11598;-84
2023/04/05 11:04:23;;;;;;;;;15.75;12.50;;;;;;;;5025179;28;11562;-81
2023/04/05 11:07:08;;;;;;;;;22.50;17.75;;;;;;;;5023805;28;11481;-81
2023/04/05 11:09:33;;;;;;;;;18.25;12.50;;;;;;;;5010950;28;8876;-81
2023/04/05 11:11:59;;;;;;;;;17.00;15.75;;;;;;;;5015787;28;11475;-81
2023/04/05 11:14:34;;;;;;;;;17.00;14.75;;;;;;;;5027349;28;9006;-82
2023/04/05 11:16:59;;;;;;;;;23.50;16.00;;;;;;;;5003177;28;10063;-82
2023/04/05 11:19:43;;;;;;;;;28.50;14.00;;;;;;;;5030284;28;12291;-82
2023/04/05 11:22:09;;;;;;;;;18.25;15.25;;;;;;;;5041448;28;8794;-82
2023/04/05 11:24:55;;;;;;;;;13.25;10.75;;;;;;;;5038890;28;11382;-82
2023/04/05 11:27:26;;;;;;;;;16.25;14.75;;;;;;;;5041711;28;8740;-82
2023/04/05 11:29:53;;;;;;;;;21.00;14.50;;;;;;;;5005986;28;11476;-82
2023/04/05 11:32:19;;;;;;;;;18.00;14.75;;;;;;;;5027290;28;11371;-82
2023/04/05 11:34:56;;;;;;;;;17.75;13.25;;;;;;;;5005810;28;11356;-82
2023/04/05 11:37:21;;;;;;;;;17.75;12.50;;;;;;;;5003995;28;11411;-82
2023/04/05 11:39:47;;;;;;;;;15.25;14.00;;;;;;;;5021676;28;11426;-82
2023/04/05 11:42:15;;;;;;;;;15.00;13.75;;;;;;;;5006683;28;8847;-82
2023/04/05 11:44:40;;;;;;;;;14.00;12.50;;;;;;;;5033781;28;8779;-82
2023/04/05 11:47:06;;;;;;;;;19.50;13.25;;;;;;;;5011579;28;11460;-82
2023/04/05 11:49:33;;;;;;;;;17.25;12.00;;;;;;;;5016632;28;8822;-81
2023/04/05 11:52:08;;;;;;;;;14.00;13.50;;;;;;;;5035930;28;11390;-82
2023/04/05 11:54:34;;;;;;;;;17.25;14.25;;;;;;;;5021336;28;11086;-82
2023/04/05 11:57:00;;;;;;;;;16.00;14.00;;;;;;;;5018429;28;11418;-82
2023/04/05 11:59:29;;;;;;;;;12.00;10.50;;;;;;;;5038317;28;11500;-82
2023/04/05 12:02:06;;;;;;;;;15.75;10.25;;;;;;;;5013842;28;11118;-81
2023/04/05 12:04:31;;;;;;;;;14.00;13.25;;;;;;;;5022977;28;11543;-81
2023/04/05 12:07:10;;;;;;;;;11.75;10.25;;;;;;;;5005268;28;11531;-80
2023/04/05 12:09:35;;;;;;;;;17.00;12.50;;;;;;;;5021411;28;8729;-81
2023/04/05 12:12:01;;;;;;;;;13.75;11.75;;;;;;;;5003387;28;11508;-81
2023/04/05 12:14:26;;;;;;;;;16.25;11.75;;;;;;;;5011208;28;8933;-81
2023/04/05 12:16:52;;;;;;;;;19.50;14.00;;;;;;;;5013321;28;10238;-81
2023/04/05 12:19:20;;;;;;;;;17.25;12.00;;;;;;;;5031791;28;11937;-81
2023/04/05 12:21:46;;;;;;;;;20.25;11.50;;;;;;;;5019524;28;9025;-79
2023/04/05 12:24:11;;;;;;;;;15.00;12.00;;;;;;;;5016659;28;11167;-80
2023/04/05 12:26:36;;;;;;;;;14.25;13.00;;;;;;;;5027784;28;8918;-81
2023/04/05 12:29:02;;;;;;;;;22.75;14.25;;;;;;;;5013616;28;8846;-82
2023/04/05 12:31:41;;;;;;;;;17.25;13.50;;;;;;;;5013470;28;8799;-82
2023/04/05 12:34:07;;;;;;;;;19.50;13.25;;;;;;;;5011829;28;10983;-82
2023/04/05 12:36:32;;;;;;;;;10.00;9.75;;;;;;;;5023798;28;11469;-82
2023/04/05 12:38:58;;;;;;;;;16.25;11.25;;;;;;;;5042248;28;10903;-81
2023/04/05 12:41:27;;;;;;;;;11.50;10.00;;;;;;;;5041859;28;8787;-82
2023/04/05 12:43:59;;;;;;;;;12.00;9.75;;;;;;;;5024115;28;8750;-81
2023/04/05 12:46:37;;;;;;;;;10.50;9.00;;;;;;;;5023515;28;10969;-81
2023/04/05 12:49:03;;;;;;;;;14.50;11.50;;;;;;;;5024431;28;11088;-81
2023/04/05 12:51:30;;;;;;;;;16.25;12.25;;;;;;;;5023262;28;10841;-82
2023/04/05 12:53:55;;;;;;;;;15.75;12.00;;;;;;;;5024110;28;10548;-81
2023/04/05 12:56:21;;;;;;;;;14.25;9.75;;;;;;;;5041530;28;10748;-82
2023/04/05 12:58:49;;;;;;;;;11.25;10.00;;;;;;;;5041069;28;8803;-81
2023/04/05 13:01:14;;;;;;;;;15.25;9.75;;;;;;;;5024066;28;9002;-82
2023/04/05 13:03:42;;;;;;;;;16.25;14.75;;;;;;;;5041260;28;10456;-82
2023/04/05 13:06:07;;;;;;;;;15.75;8.50;;;;;;;;5042111;28;8756;-81
2023/04/05 13:08:33;;;;;;;;;14.00;10.25;;;;;;;;5041413;28;10325;-82
2023/04/05 13:10:59;;;;;;;;;11.00;9.00;;;;;;;;5020416;28;8957;-82
2023/04/05 13:13:25;;;;;;;;;14.00;9.00;;;;;;;;5008381;28;8734;-82
2023/04/05 13:15:55;;;;;;;;;13.50;11.25;;;;;;;;5009499;28;11410;-82
2023/04/05 13:18:21;;;;;;;;;14.50;10.25;;;;;;;;5031139;28;8740;-82
2023/04/05 13:20:46;;;;;;;;;19.00;10.50;;;;;;;;5013172;28;10144;-81
2023/04/05 13:23:12;;;;;;;;;14.75;11.75;;;;;;;;5004854;28;8912;-82
2023/04/05 13:25:37;;;;;;;;;16.00;12.00;;;;;;;;5004002;28;9921;-82
2023/04/05 13:28:03;;;;;;;;;12.00;10.00;;;;;;;;5021709;28;8793;-81
2023/04/05 13:30:29;;;;;;;;;20.75;15.25;;;;;;;;5031218;28;8904;-82
2023/04/05 13:32:54;;;;;;;;;19.50;13.00;;;;;;;;5032552;28;8777;-82
2023/04/05 13:35:19;;;;;;;;;20.25;14.00;;;;;;;;5010701;28;11118;-82
2023/04/05 13:37:45;;;;;;;;;20.00;15.00;;;;;;;;5019929;28;8829;-82
2023/04/05 13:40:10;;;;;;;;;17.00;13.00;;;;;;;;5038322;28;9574;-82
2023/04/05 13:42:35;;;;;;;;;20.25;18.75;;;;;;;;5041376;28;8814;-82
2023/04/05 13:45:01;;;;;;;;;14.00;12.33;;;;;;;;5036191;28;8840;-82
2023/04/05 13:47:26;;;;;;;;;13.00;11.33;;;;;;;;5003827;28;9460;-82
2023/04/05 13:49:51;;;;;;;;;16.67;11.67;;;;;;;;5026943;28;9088;-82
2023/04/05 13:52:17;;;;;;;;;17.33;13.67;;;;;;;;5023274;28;8775;-82
2023/04/05 13:54:42;;;;;;;;;14.33;12.00;;;;;;;;5041741;28;8775;-82
2023/04/05 13:57:07;;;;;;;;;14.33;12.67;;;;;;;;5003265;28;8907;-82
2023/04/05 13:59:32;;;;;;;;;12.33;12.33;;;;;;;;5002842;28;8781;-83
2023/04/05 14:01:58;;;;;;;;;13.67;11.00;;;;;;;;5020976;28;8781;-82
2023/04/05 14:04:23;;;;;;;;;16.00;14.33;;;;;;;;5003736;28;10014;-83
2023/04/05 14:06:48;;;;;;;;;12.67;10.33;;;;;;;;5021596;28;8820;-83
2023/04/05 14:09:13;;;;;;;;;16.33;11.67;;;;;;;;5003614;28;8810;-83
2023/04/05 14:11:39;;;;;;;;;15.00;12.33;;;;;;;;5003413;28;8812;-83
2023/04/05 14:14:04;;;;;;;;;15.67;12.00;;;;;;;;5010925;28;9960;-83
2023/04/05 14:16:30;;;;;;;;;12.33;11.00;;;;;;;;5013532;28;8823;-83
2023/04/05 14:18:55;;;;;;;;;18.00;15.00;;;;;;;;5014286;28;8809;-83
2023/04/05 14:21:20;;;;;;;;;20.00;12.33;;;;;;;;5012679;28;8867;-83
2023/04/05 14:23:46;;;;;;;;;14.67;11.00;;;;;;;;5032410;28;61822;-83
2023/04/05 14:26:11;;;;;;;;;14.00;10.67;;;;;;;;4981286;28;62701;-83